Time;durP1;ratioP1;P1;durP2;ratioP2;P2;SDS_P1;SDS_P2;PMS_P1;PMS_P2;Temp;Humidity;BMP_temperature;BMP_pressure;BME280_temperature;BME280_humidity;BME280_pressure;Samples;Min_cycle;Max_cycle;Signal;HPM_P1;HPM_P2
2022/12/18 00:00:06;;;;;;;95.22;60.75;;;;;;;9.00;100.00;100654.06;5069544;28;20024;-30
2022/12/18 00:02:32;;;;;;;87.68;47.78;;;;;;;9.07;100.00;100646.94;5087969;28;20036;-30
2022/12/18 00:04:58;;;;;;;113.03;78.45;;;;;;;9.13;100.00;100638.19;5087958;28;20117;-34
2022/12/18 00:07:24;;;;;;;98.30;63.78;;;;;;;8.96;100.00;100639.50;5087603;28;20032;-31
2022/12/18 00:09:49;;;;;;;94.50;61.67;;;;;;;8.88;100.00;100642.31;5069447;28;20076;-31
2022/12/18 00:12:15;;;;;;;80.32;47.13;;;;;;;9.01;100.00;100672.50;5087849;28;20028;-29
2022/12/18 00:14:40;;;;;;;65.95;33.17;;;;;;;9.07;100.00;100716.13;5087897;28;20073;-28
2022/12/18 00:17:05;;;;;;;58.60;30.70;;;;;;;9.02;100.00;100723.88;5087534;28;20024;-30
2022/12/18 00:19:31;;;;;;;72.18;33.10;;;;;;;8.99;100.00;100750.84;5087820;28;20514;-28
2022/12/18 00:21:58;;;;;;;78.03;34.45;;;;;;;8.73;100.00;100744.28;5087565;28;20035;-30
2022/12/18 00:24:23;;;;;;;77.97;34.72;;;;;;;8.74;100.00;100747.75;5087556;28;20381;-29
2022/12/18 00:26:48;;;;;;;72.85;32.78;;;;;;;8.75;100.00;100744.91;5069322;28;20054;-31
2022/12/18 00:29:14;;;;;;;65.43;31.38;;;;;;;8.81;100.00;100744.16;5087453;28;20020;-28
2022/12/18 00:31:41;;;;;;;70.07;32.42;;;;;;;9.00;100.00;100736.53;5087132;28;20031;-29
2022/12/18 00:34:10;;;;;;;73.82;34.53;;;;;;;9.04;100.00;100751.91;5087408;28;20032;-29
2022/12/18 00:36:36;;;;;;;61.65;31.65;;;;;;;9.13;100.00;100757.91;5087179;28;20501;-32
2022/12/18 00:39:04;;;;;;;67.95;32.05;;;;;;;9.27;100.00;100758.03;5087201;28;20028;-40
2022/12/18 00:44:16;;;;;;;59.20;30.33;;;;;;;9.33;100.00;100763.41;5087465;28;19919;-29
2022/12/18 00:46:43;;;;;;;66.47;32.13;;;;;;;9.42;100.00;100761.44;5069034;28;20024;-28
2022/12/18 00:49:09;;;;;;;58.03;30.60;;;;;;;9.49;100.00;100745.50;5086896;28;20032;-27
2022/12/18 00:51:34;;;;;;;63.83;30.83;;;;;;;9.38;100.00;100730.91;5087543;28;20032;-28
2022/12/18 00:54:00;;;;;;;69.53;33.85;;;;;;;9.89;100.00;100759.88;5087195;28;20032;-30
2022/12/18 00:56:25;;;;;;;62.05;31.90;;;;;;;9.92;100.00;100746.16;5086891;28;20028;-30
2022/12/18 00:58:51;;;;;;;61.55;30.75;;;;;;;9.56;100.00;100741.03;5087354;28;20031;-29
2022/12/18 01:01:17;;;;;;;65.13;31.80;;;;;;;9.58;100.00;100737.19;5087245;28;20480;-29
2022/12/18 01:03:42;;;;;;;65.63;34.45;;;;;;;9.67;100.00;100774.31;5087108;28;20038;-32
2022/12/18 01:06:11;;;;;;;67.85;33.65;;;;;;;9.55;100.00;100772.16;5087030;28;20032;-28
2022/12/18 01:08:37;;;;;;;61.28;31.45;;;;;;;9.54;100.00;100761.69;5069271;28;20032;-29
2022/12/18 01:11:15;;;;;;;62.97;31.33;;;;;;;9.48;100.00;100754.50;5086773;28;20483;-29
2022/12/18 01:13:41;;;;;;;59.20;30.85;;;;;;;9.71;100.00;100772.91;5068776;28;20032;-30
2022/12/18 01:16:06;;;;;;;61.15;31.58;;;;;;;9.61;100.00;100755.41;5086955;28;20058;-30
2022/12/18 01:18:32;;;;;;;60.85;31.48;;;;;;;9.71;100.00;100770.22;5086920;28;20107;-31
2022/12/18 01:20:58;;;;;;;56.95;30.48;;;;;;;9.73;100.00;100763.69;5087135;28;20024;-28
2022/12/18 01:23:27;;;;;;;58.33;30.58;;;;;;;9.59;100.00;100743.31;5086883;28;20046;-33
2022/12/18 01:25:52;;;;;;;59.63;32.30;;;;;;;9.54;100.00;100721.75;5068548;28;20047;-30
2022/12/18 01:28:18;;;;;;;59.78;32.42;;;;;;;9.55;100.00;100755.38;5087033;28;20032;-29
2022/12/18 01:30:43;;;;;;;64.63;32.60;;;;;;;9.45;100.00;100739.75;5086949;28;20035;-28
2022/12/18 01:33:08;;;;;;;63.25;31.65;;;;;;;9.44;100.00;100738.09;5086583;28;20048;-28
2022/12/18 01:35:40;;;;;;;59.72;31.63;;;;;;;9.55;100.00;100760.69;5068630;28;20028;-28
2022/12/18 01:38:05;;;;;;;63.50;32.08;;;;;;;9.54;100.00;100770.53;5068517;28;20035;-28
2022/12/18 01:40:31;;;;;;;57.40;30.98;;;;;;;9.47;100.00;100759.00;5086798;28;20028;-28
2022/12/18 01:42:56;;;;;;;59.30;29.92;;;;;;;9.51;100.00;100781.56;5086751;28;20047;-28
2022/12/18 01:45:25;;;;;;;59.28;30.42;;;;;;;9.59;100.00;100783.25;5086725;28;20036;-29
2022/12/18 01:48:00;;;;;;;55.33;28.60;;;;;;;9.61;100.00;100775.91;5086718;28;20032;-29
2022/12/18 01:50:32;;;;;;;60.75;30.80;;;;;;;9.48;100.00;100771.31;5068445;28;20078;-31
2022/12/18 01:53:11;;;;;;;61.70;31.65;;;;;;;9.37;100.00;100771.84;5086537;28;20036;-29
2022/12/18 01:55:52;;;;;;;58.72;30.73;;;;;;;9.39;100.00;100777.78;5086628;28;20056;-28
2022/12/18 01:58:19;;;;;;;60.50;30.02;;;;;;;9.23;100.00;100758.44;5086675;28;20042;-32
2022/12/18 02:00:45;;;;;;;61.08;30.60;;;;;;;9.38;100.00;100776.97;5086548;28;20238;-30
2022/12/18 02:03:11;;;;;;;63.35;31.17;;;;;;;9.22;100.00;100761.28;5068219;28;20173;-35
2022/12/18 02:05:48;;;;;;;62.35;31.50;;;;;;;9.21;100.00;100787.09;5068454;28;20028;-29
2022/12/18 02:08:22;;;;;;;61.08;30.88;;;;;;;9.21;100.00;100784.44;5087531;28;20036;-32
2022/12/18 02:11:04;;;;;;;61.38;31.35;;;;;;;9.14;100.00;100774.72;5072005;28;20143;-29
2022/12/18 02:13:48;;;;;;;59.20;29.35;;;;;;;9.02;100.00;100774.41;5071889;28;20483;-28
2022/12/18 02:16:20;;;;;;;71.88;40.00;;;;;;;9.06;100.00;100773.03;5071641;28;20028;-31
2022/12/18 02:18:51;;;;;;;59.78;32.30;;;;;;;9.00;100.00;100757.81;5090338;28;20123;-32
2022/12/18 02:21:47;;;;;;;55.58;30.00;;;;;;;9.05;100.00;100752.72;5089956;28;20024;-32
2022/12/18 02:24:25;;;;;;;60.88;30.98;;;;;;;9.16;100.00;100776.19;5071920;28;20035;-28
2022/12/18 02:26:56;;;;;;;56.00;30.95;;;;;;;9.22;100.00;100785.25;5089803;28;20488;-30
2022/12/18 02:29:27;;;;;;;65.90;32.03;;;;;;;9.16;100.00;100778.03;5089629;28;20497;-31
2022/12/18 02:31:57;;;;;;;76.72;42.17;;;;;;;9.10;100.00;100779.59;5071060;28;20048;-29
2022/12/18 02:34:28;;;;;;;65.28;33.55;;;;;;;9.22;100.00;100793.22;5071446;28;20028;-31
2022/12/18 02:36:56;;;;;;;59.28;30.15;;;;;;;9.29;100.00;100777.31;5089694;28;20032;-30
2022/12/18 02:39:23;;;;;;;;;;;;;;;9.34;100.00;100790.88;5071876;28;20126;-29
2022/12/18 02:41:50;;;;;;;105.23;58.30;;;;;;;9.23;100.00;100793.03;5071117;28;19912;-27
2022/12/18 02:44:15;;;;;;;96.90;52.83;;;;;;;9.22;100.00;100794.03;5071331;28;20109;-28
2022/12/18 02:46:44;;;;;;;72.78;37.47;;;;;;;9.21;100.00;100792.41;5071151;28;20070;-28
2022/12/18 02:49:22;;;;;;;90.50;50.05;;;;;;;9.36;100.00;100804.81;5071034;28;20024;-29
2022/12/18 02:51:54;;;;;;;104.95;53.90;;;;;;;9.27;100.00;100784.66;5089210;28;20072;-33
2022/12/18 02:54:43;;;;;;;117.20;60.83;;;;;;;9.50;100.00;100797.72;5089296;28;20024;-28
2022/12/18 02:57:18;;;;;;;78.43;36.10;;;;;;;9.58;100.00;100790.44;5089245;28;20028;-29
2022/12/18 03:00:06;;;;;;;61.03;32.88;;;;;;;9.55;100.00;100776.69;5089828;28;20024;-29
2022/12/18 03:02:51;;;;;;;67.28;34.60;;;;;;;9.63;100.00;100784.50;5089264;28;20171;-28
2022/12/18 03:05:18;;;;;;;97.68;47.10;;;;;;;9.54;100.00;100786.50;5088883;28;20043;-30
2022/12/18 03:08:07;;;;;;;230.52;107.30;;;;;;;9.58;100.00;100797.56;5089331;28;20028;-31
2022/12/18 03:10:39;;;;;;;294.73;148.48;;;;;;;9.68;100.00;100805.22;5088876;28;20023;-27
2022/12/18 03:13:10;;;;;;;181.40;88.93;;;;;;;9.61;100.00;100787.38;5070283;28;20035;-31
2022/12/18 03:15:43;;;;;;;109.28;48.22;;;;;;;9.64;100.00;100792.31;5070543;28;20027;-33
2022/12/18 03:18:23;;;;;;;166.18;78.60;;;;;;;9.63;100.00;100816.47;5089246;28;20437;-29
2022/12/18 03:20:51;;;;;;;106.38;47.22;;;;;;;9.52;100.00;100798.34;5088591;28;20106;-28
2022/12/18 03:23:20;;;;;;;113.30;54.05;;;;;;;9.53;100.00;100792.84;5088367;28;20032;-31
2022/12/18 03:25:48;;;;;;;97.93;46.22;;;;;;;9.74;100.00;100818.59;5070273;28;20060;-28
2022/12/18 03:28:20;;;;;;;96.03;44.85;;;;;;;9.80;100.00;100824.97;5070543;28;20029;-28
2022/12/18 03:30:49;;;;;;;72.65;33.75;;;;;;;9.68;100.00;100807.88;5088818;28;20040;-31
2022/12/18 03:33:27;;;;;;;72.93;34.10;;;;;;;9.83;100.00;100835.25;5088106;28;20060;-32
2022/12/18 03:35:52;;;;;;;;;;;;;;;9.87;100.00;100828.53;5088911;28;20027;-28
2022/12/18 03:38:18;;;;;;;70.05;35.00;;;;;;;9.73;100.00;100837.44;5088797;28;19919;-29
2022/12/18 03:40:44;;;;;;;69.95;33.50;;;;;;;9.80;100.00;100832.97;5088774;28;20483;-28
2022/12/18 03:43:34;;;;;;;67.53;34.55;;;;;;;9.76;100.00;100842.38;5069850;28;20483;-28
2022/12/18 03:46:08;;;;;;;68.00;33.95;;;;;;;9.74;100.00;100849.72;5036413;28;20423;-30
2022/12/18 03:49:10;;;;;;;65.57;32.28;;;;;;;9.79;100.00;100858.78;5088108;28;20032;-27
2022/12/18 03:51:50;;;;;;;71.43;33.30;;;;;;;9.87;100.00;100855.16;5069845;28;20040;-29
2022/12/18 03:54:17;;;;;;;66.00;32.47;;;;;;;9.93;100.00;100859.72;5069609;28;20036;-31
2022/12/18 03:56:48;;;;;;;64.43;32.42;;;;;;;9.71;100.00;100834.97;5087891;28;20024;-28
2022/12/18 03:59:16;;;;;;;65.43;32.28;;;;;;;9.70;100.00;100849.28;5087746;28;20038;-33
2022/12/18 04:01:47;;;;;;;59.75;29.52;;;;;;;9.90;100.00;100865.41;5088049;28;20028;-29
2022/12/18 04:04:15;;;;;;;60.15;29.95;;;;;;;9.92;100.00;100871.38;5087972;28;20035;-28
2022/12/18 04:06:41;;;;;;;61.13;30.75;;;;;;;9.68;100.00;100853.16;5069793;28;20117;-28
2022/12/18 04:09:07;;;;;;;54.67;26.65;;;;;;;9.76;100.00;100874.34;5087526;28;20028;-29
2022/12/18 04:11:33;;;;;;;53.03;28.20;;;;;;;9.66;100.00;100872.00;5087912;28;20401;-30
2022/12/18 04:13:59;;;;;;;57.97;29.90;;;;;;;9.55;100.00;100877.88;5087877;28;20400;-30
2022/12/18 04:16:25;;;;;;;53.25;28.23;;;;;;;9.37;100.00;100859.69;5088042;28;20434;-30
2022/12/18 04:18:52;;;;;;;54.55;29.33;;;;;;;9.55;100.00;100878.69;5087947;28;20066;-29
2022/12/18 04:21:17;;;;;;;56.72;28.23;;;;;;;9.53;100.00;100890.53;5087540;28;20115;-32
2022/12/18 04:23:43;;;;;;;56.50;29.45;;;;;;;9.41;100.00;100884.91;5087948;28;20578;-29
2022/12/18 04:26:08;;;;;;;51.88;27.23;;;;;;;9.46;100.00;100874.53;5069368;28;20035;-28
2022/12/18 04:28:34;;;;;;;56.28;30.55;;;;;;;9.56;100.00;100879.50;5087555;28;20077;-30
2022/12/18 04:30:59;;;;;;;57.72;31.35;;;;;;;9.52;100.00;100879.06;5086511;28;20036;-29
2022/12/18 04:33:24;;;;;;;71.20;37.05;;;;;;;9.60;100.00;100892.25;5087171;28;20089;-30
2022/12/18 04:35:50;;;;;;;67.30;39.33;;;;;;;9.64;100.00;100904.16;5069080;28;20036;-29
2022/12/18 04:38:15;;;;;;;68.50;35.05;;;;;;;9.77;100.00;100903.44;5087544;28;20032;-33
2022/12/18 04:40:41;;;;;;;64.32;33.83;;;;;;;9.83;100.00;100904.53;5069254;28;20519;-30
2022/12/18 04:43:06;;;;;;;63.05;30.50;;;;;;;9.83;100.00;100904.53;5087019;28;20023;-30
2022/12/18 04:45:32;;;;;;;61.40;30.65;;;;;;;9.78;100.00;100910.41;5087531;28;20119;-29
2022/12/18 04:47:59;;;;;;;59.72;29.20;;;;;;;9.65;100.00;100889.00;5087681;28;20032;-28
2022/12/18 04:50:24;;;;;;;56.97;28.63;;;;;;;9.59;100.00;100895.09;5069089;28;20028;-30
2022/12/18 04:52:50;;;;;;;61.25;29.52;;;;;;;9.63;100.00;100910.50;5087427;28;20031;-31
2022/12/18 04:55:15;;;;;;;61.95;30.73;;;;;;;9.62;100.00;100906.19;5087463;28;20035;-29
2022/12/18 04:57:40;;;;;;;68.25;34.03;;;;;;;9.67;100.00;100924.25;5087815;28;20403;-30
2022/12/18 05:00:07;;;;;;;66.07;31.80;;;;;;;9.68;100.00;100930.41;5087171;28;20650;-31
2022/12/18 05:02:32;;;;;;;73.47;35.20;;;;;;;9.77;100.00;100926.59;5087453;28;20024;-30
2022/12/18 05:04:58;;;;;;;86.93;43.05;;;;;;;9.84;100.00;100933.63;5087318;28;20081;-29
2022/12/18 05:07:23;;;;;;;75.47;39.35;;;;;;;9.88;100.00;100919.91;5068821;28;20488;-27
2022/12/18 05:09:48;;;;;;;68.25;36.35;;;;;;;9.94;100.00;100935.13;5069112;28;20032;-31
2022/12/18 05:12:14;;;;;;;130.10;62.28;;;;;;;9.93;100.00;100944.97;5087347;28;20494;-29
2022/12/18 05:14:39;;;;;;;67.55;33.88;;;;;;;9.73;100.00;100928.00;5087031;28;20028;-31
2022/12/18 05:17:05;;;;;;;61.38;31.25;;;;;;;9.74;100.00;100933.13;5086897;28;20028;-28
2022/12/18 05:19:30;;;;;;;67.07;35.03;;;;;;;9.73;100.00;100939.47;5087091;28;20032;-31
2022/12/18 05:21:55;;;;;;;61.55;30.48;;;;;;;9.85;100.00;100939.78;5086731;28;20020;-30
2022/12/18 05:24:21;;;;;;;55.40;28.95;;;;;;;9.93;100.00;100952.97;5086652;28;20038;-29
2022/12/18 05:26:46;;;;;;;53.72;29.33;;;;;;;10.10;100.00;100955.34;5068637;28;20034;-28
2022/12/18 05:29:12;;;;;;;58.63;30.77;;;;;;;10.12;100.00;100958.66;5087138;28;20040;-35
2022/12/18 05:31:38;;;;;;;69.88;36.58;;;;;;;10.14;100.00;100964.59;5086596;28;20453;-36
2022/12/18 05:34:04;;;;;;;62.67;31.00;;;;;;;10.17;100.00;100966.88;5068700;28;20032;-29
2022/12/18 05:36:30;;;;;;;49.10;26.15;;;;;;;10.11;100.00;100959.66;5086903;28;20749;-28
2022/12/18 05:38:55;;;;;;;50.05;26.67;;;;;;;10.19;100.00;100964.84;5086866;28;20089;-34
2022/12/18 05:41:21;;;;;;;47.72;26.45;;;;;;;10.38;100.00;100982.84;5086817;28;20047;-29
2022/12/18 05:43:47;;;;;;;50.78;25.40;;;;;;;10.38;100.00;100990.84;5090252;28;20749;-29
2022/12/18 05:46:17;;;;;;;49.08;26.75;;;;;;;10.24;100.00;100967.75;5091167;28;20028;-29
2022/12/18 05:48:43;;;;;;;47.17;25.40;;;;;;;10.35;100.00;100990.41;5090729;28;20028;-31
2022/12/18 05:51:14;;;;;;;44.78;24.77;;;;;;;10.46;100.00;101003.19;5071998;28;20106;-28
2022/12/18 05:53:40;;;;;;;44.28;24.20;;;;;;;10.39;100.00;101002.34;5090381;28;20024;-30
2022/12/18 05:56:09;;;;;;;47.08;24.08;;;;;;;10.40;100.00;101006.63;5072390;28;20036;-31
2022/12/18 05:58:34;;;;;;;48.85;28.80;;;;;;;10.37;100.00;100989.19;5072077;28;20107;-30
2022/12/18 06:01:16;;;;;;;56.42;29.17;;;;;;;10.30;100.00;101009.66;5090425;28;20028;-35
2022/12/18 06:03:42;;;;;;;58.38;30.85;;;;;;;10.24;100.00;101015.75;5090213;28;20055;-28
2022/12/18 06:06:16;;;;;;;56.78;32.03;;;;;;;9.97;100.00;101001.34;5090456;28;20070;-32
2022/12/18 06:08:42;;;;;;;60.30;32.72;;;;;;;10.16;100.00;101018.53;5090272;28;20135;-31
2022/12/18 06:11:07;;;;;;;72.32;35.33;;;;;;;10.10;100.00;101025.47;5090034;28;20204;-28
2022/12/18 06:13:33;;;;;;;69.15;33.85;;;;;;;10.09;100.00;101037.13;5071777;28;20116;-30
2022/12/18 06:16:01;;;;;;;56.28;31.15;;;;;;;10.05;100.00;101023.38;5090068;28;20063;-32
2022/12/18 06:18:26;;;;;;;45.42;24.23;;;;;;;10.06;100.00;101034.84;5089825;28;20559;-29
2022/12/18 06:20:56;;;;;;;39.83;22.90;;;;;;;9.83;100.00;101019.91;5088560;28;20127;-29
2022/12/18 06:23:22;;;;;;;34.00;18.90;;;;;;;10.05;100.00;101034.03;5089940;28;20448;-30
2022/12/18 06:25:47;;;;;;;28.10;16.08;;;;;;;10.02;100.00;101044.25;5071586;28;20517;-28
2022/12/18 06:28:12;;;;;;;28.65;16.77;;;;;;;9.98;100.00;101057.13;5071684;28;20089;-29
2022/12/18 06:30:38;;;;;;;31.88;17.63;;;;;;;10.00;100.00;101063.09;5089971;28;20040;-29
2022/12/18 06:33:03;;;;;;;27.75;16.90;;;;;;;9.95;100.00;101038.88;5087719;28;20048;-29
2022/12/18 06:35:29;;;;;;;26.17;15.80;;;;;;;9.99;100.00;101069.44;5090189;28;20483;-30
2022/12/18 06:37:54;;;;;;;27.35;15.10;;;;;;;9.90;100.00;101072.41;5090058;28;20088;-28
2022/12/18 06:40:20;;;;;;;27.70;13.90;;;;;;;10.01;100.00;101070.09;5089681;28;20017;-30
2022/12/18 06:42:45;;;;;;;20.80;12.90;;;;;;;9.84;100.00;101061.50;5071338;28;20082;-32
2022/12/18 06:45:11;;;;;;;23.85;12.43;;;;;;;9.92;100.00;101081.06;5089575;28;20406;-28
2022/12/18 06:47:36;;;;;;;21.45;11.73;;;;;;;9.95;100.00;101092.16;5070940;28;20562;-28
2022/12/18 06:50:02;;;;;;;17.30;10.20;;;;;;;10.09;100.00;101094.94;5088210;28;20457;-31
2022/12/18 06:52:28;;;;;;;16.88;10.38;;;;;;;9.95;100.00;101092.16;5089235;28;20642;-28
2022/12/18 06:54:53;;;;;;;16.08;9.68;;;;;;;9.88;100.00;101083.25;5088507;28;20032;-29
2022/12/18 06:57:19;;;;;;;15.60;8.98;;;;;;;9.93;100.00;101091.53;5089019;28;20032;-31
2022/12/18 06:59:44;;;;;;;16.40;9.45;;;;;;;9.87;100.00;101105.59;5089345;28;20145;-33
2022/12/18 07:02:13;;;;;;;15.05;9.20;;;;;;;9.77;100.00;101113.88;5089094;28;20056;-33
2022/12/18 07:04:38;;;;;;;13.43;8.38;;;;;;;9.71;100.00;101105.84;5089399;28;20498;-31
2022/12/18 07:07:03;;;;;;;13.48;7.88;;;;;;;9.77;100.00;101121.06;5088878;28;20028;-31
2022/12/18 07:09:29;;;;;;;13.05;7.95;;;;;;;9.56;100.00;101113.84;5089376;28;20024;-29
2022/12/18 07:11:54;;;;;;;12.23;7.82;;;;;;;9.54;100.00;101110.53;5070683;28;20024;-28
2022/12/18 07:14:20;;;;;;;14.30;8.00;;;;;;;9.63;100.00;101125.41;5070507;28;20024;-30
2022/12/18 07:16:45;;;;;;;12.55;7.05;;;;;;;9.41;100.00;101116.53;5088860;28;20036;-28
2022/12/18 07:19:11;;;;;;;12.13;7.72;;;;;;;9.59;100.00;101138.25;5088662;28;20399;-28
2022/12/18 07:21:36;;;;;;;13.43;7.80;;;;;;;9.67;100.00;101128.53;5088910;28;20024;-33
2022/12/18 07:24:02;;;;;;;11.45;6.38;;;;;;;9.69;100.00;101135.31;5088879;28;20483;-33
2022/12/18 07:26:27;;;;;;;12.35;6.97;;;;;;;9.71;100.00;101137.81;5088693;28;20032;-28
2022/12/18 07:28:56;;;;;;;11.93;6.93;;;;;;;9.77;100.00;101131.72;5088603;28;20032;-30
2022/12/18 07:31:21;;;;;;;13.25;7.63;;;;;;;9.72;100.00;101139.44;5069896;28;20071;-29
2022/12/18 07:33:48;;;;;;;11.77;7.38;;;;;;;9.64;100.00;101143.88;5070987;28;20076;-28
2022/12/18 07:36:14;;;;;;;13.25;8.32;;;;;;;9.60;100.00;101131.09;5068333;28;20028;-35
2022/12/18 07:38:40;;;;;;;12.93;7.18;;;;;;;9.74;100.00;101140.06;5050345;28;20514;-28
2022/12/18 07:41:08;;;;;;;12.55;6.88;;;;;;;9.63;100.00;101147.53;5049894;28;20032;-31
2022/12/18 07:43:34;;;;;;;12.02;7.82;;;;;;;9.81;100.00;101154.31;5050031;28;20094;-29
2022/12/18 07:46:00;;;;;;;13.23;7.47;;;;;;;9.65;100.00;101139.38;5049891;28;20021;-31
2022/12/18 07:48:26;;;;;;;16.80;9.25;;;;;;;9.73;100.00;101157.91;5068350;28;20032;-32
2022/12/18 07:50:52;;;;;;;18.30;10.50;;;;;;;9.89;100.00;101174.66;5068160;28;20021;-30
2022/12/18 07:53:18;;;;;;;14.98;9.25;;;;;;;9.77;100.00;101167.16;5049771;28;20032;-29
2022/12/18 07:55:43;;;;;;;13.63;8.77;;;;;;;9.77;100.00;101174.34;5066634;28;20087;-31
2022/12/18 07:58:09;;;;;;;15.60;8.55;;;;;;;9.83;100.00;101187.75;5067932;28;20074;-28
2022/12/18 08:00:35;;;;;;;14.90;8.18;;;;;;;9.70;100.00;101173.41;5067916;28;20103;-30
2022/12/18 08:03:00;;;;;;;16.20;9.73;;;;;;;9.88;100.00;101191.69;5049536;28;20465;-30
2022/12/18 08:05:26;;;;;;;23.45;11.32;;;;;;;9.97;100.00;101196.72;5067597;28;20032;-32
2022/12/18 08:07:52;;;;;;;16.05;9.18;;;;;;;9.90;100.00;101185.16;5049611;28;20044;-27
2022/12/18 08:10:18;;;;;;;21.55;11.20;;;;;;;9.86;100.00;101183.88;5067757;28;20024;-33
2022/12/18 08:12:44;;;;;;;14.98;8.80;;;;;;;9.90;100.00;101198.47;5049539;28;20071;-30
2022/12/18 08:15:09;;;;;;;13.68;7.25;;;;;;;9.75;100.00;101181.69;5066954;28;20424;-29
2022/12/18 08:17:35;;;;;;;37.03;20.85;;;;;;;9.61;100.00;101184.19;5067790;28;20028;-30
2022/12/18 08:20:00;;;;;;;14.98;8.70;;;;;;;9.73;100.00;101205.03;5067567;28;20032;-30
2022/12/18 08:22:26;;;;;;;14.10;8.15;;;;;;;9.71;100.00;101212.38;5067885;28;20040;-29
2022/12/18 08:24:51;;;;;;;26.58;14.15;;;;;;;9.69;100.00;101219.72;5067414;28;20035;-30
2022/12/18 08:27:17;;;;;;;17.33;8.65;;;;;;;9.73;100.00;101221.84;5067174;28;20036;-28
2022/12/18 08:29:42;;;;;;;20.15;11.73;;;;;;;9.54;100.00;101193.94;5067209;28;20086;-27
2022/12/18 08:32:08;;;;;;;16.05;8.82;;;;;;;9.72;100.00;101219.34;5067077;28;20052;-28
2022/12/18 08:34:34;;;;;;;14.13;7.63;;;;;;;9.73;100.00;101210.34;5067586;28;20546;-31
2022/12/18 08:37:00;;;;;;;12.05;7.32;;;;;;;9.67;100.00;101221.75;5067006;28;20048;-30
2022/12/18 08:39:26;;;;;;;13.95;8.07;;;;;;;9.71;100.00;101225.69;5067160;28;20899;-29
2022/12/18 08:44:37;;;;;;;36.05;17.80;;;;;;;9.68;100.00;101224.22;5035946;28;20040;-29
2022/12/18 08:47:03;;;;;;;30.05;14.65;;;;;;;9.77;100.00;101208.97;5067130;28;20047;-37
2022/12/18 08:49:29;;;;;;;23.58;11.55;;;;;;;9.84;100.00;101225.84;5049153;28;20408;-32
2022/12/18 08:51:56;;;;;;;15.02;8.38;;;;;;;9.77;100.00;101220.44;5066936;28;20029;-28
2022/12/18 08:54:22;;;;;;;24.13;13.82;;;;;;;9.78;100.00;101202.63;5067077;28;20028;-32
2022/12/18 08:56:49;;;;;;;20.77;10.35;;;;;;;9.72;100.00;101198.03;5066856;28;20040;-28
2022/12/18 08:59:15;;;;;;;16.65;9.23;;;;;;;9.72;100.00;101217.50;5067026;28;20032;-28
2022/12/18 09:01:40;;;;;;;15.73;9.63;;;;;;;9.72;100.00;101208.69;5049030;28;20068;-28
2022/12/18 09:04:06;;;;;;;14.50;8.50;;;;;;;9.52;100.00;101192.44;5066940;28;20419;-32
2022/12/18 09:06:31;;;;;;;20.35;9.70;;;;;;;9.72;100.00;101208.69;5067174;28;20039;-28
2022/12/18 09:08:57;;;;;;;24.20;13.18;;;;;;;9.64;100.00;101205.13;5066870;28;20036;-29
2022/12/18 09:11:25;;;;;;;30.67;17.27;;;;;;;9.56;100.00;101193.72;5066535;28;20029;-30
2022/12/18 09:13:51;;;;;;;;;;;;;;;9.69;100.00;101201.09;5049389;28;20028;-28
2022/12/18 09:16:17;;;;;;;17.65;9.52;;;;;;;9.42;100.00;101182.09;5067154;28;19916;-27
2022/12/18 09:18:42;;;;;;;13.40;7.90;;;;;;;9.71;100.00;101201.72;5070372;28;20033;-30
2022/12/18 09:21:14;;;;;;;14.57;7.90;;;;;;;9.73;100.00;101203.19;5070836;28;20028;-30
2022/12/18 09:23:40;;;;;;;13.88;7.60;;;;;;;9.72;100.00;101206.03;5070992;28;20041;-28
2022/12/18 09:26:05;;;;;;;17.67;9.65;;;;;;;9.71;100.00;101213.19;5052923;28;20032;-28
2022/12/18 09:28:31;;;;;;;15.57;8.73;;;;;;;9.67;100.00;101211.91;5071041;28;20040;-31
2022/12/18 09:30:56;;;;;;;15.25;8.43;;;;;;;9.72;100.00;101214.03;5068994;28;20029;-28
2022/12/18 09:33:22;;;;;;;13.68;8.63;;;;;;;9.65;100.00;101198.78;5070522;28;20485;-27
2022/12/18 09:35:47;;;;;;;16.58;9.00;;;;;;;9.68;100.00;101196.75;5069355;28;20047;-29
2022/12/18 09:38:15;;;;;;;30.50;15.73;;;;;;;9.86;100.00;101231.81;5036178;28;20051;-28
2022/12/18 09:40:53;;;;;;;76.70;37.65;;;;;;;9.98;100.00;101225.00;5052338;28;20044;-31
2022/12/18 09:43:23;;;;;;;164.25;67.47;;;;;;;10.11;100.00;101228.84;5070782;28;20114;-31
2022/12/18 09:45:58;;;;;;;72.70;30.65;;;;;;;9.96;100.00;101216.38;5035682;28;20070;-31
2022/12/18 09:48:28;;;;;;;218.98;75.57;;;;;;;9.99;100.00;101223.16;5070583;28;20063;-29
2022/12/18 09:51:01;;;;;;;200.23;65.70;;;;;;;10.13;100.00;101234.81;5070358;28;20028;-31
2022/12/18 09:53:35;;;;;;;249.98;79.72;;;;;;;10.08;100.00;101215.91;5069855;28;20066;-35
2022/12/18 09:56:03;;;;;;;174.52;58.55;;;;;;;9.95;100.00;101228.06;5051214;28;20123;-31
2022/12/18 09:58:39;;;;;;;129.80;46.45;;;;;;;9.85;100.00;101208.88;5070192;28;20534;-33
2022/12/18 10:01:24;;;;;;;131.07;47.85;;;;;;;9.79;100.00;101230.94;5069710;28;20063;-28
2022/12/18 10:03:51;;;;;;;184.55;68.18;;;;;;;9.65;100.00;101219.25;5052246;28;20040;-30
2022/12/18 10:06:57;;;;;;;190.52;61.00;;;;;;;9.83;100.00;101234.88;5051948;28;20035;-29
2022/12/18 10:09:41;;;;;;;180.73;60.25;;;;;;;9.65;100.00;101236.06;5069087;28;20041;-28
2022/12/18 10:12:06;;;;;;;206.57;74.22;;;;;;;9.83;100.00;101229.53;5070292;28;20039;-28
2022/12/18 10:15:00;;;;;;;120.53;48.15;;;;;;;9.69;100.00;101243.69;5070014;28;20025;-29
2022/12/18 10:17:48;;;;;;;112.25;49.85;;;;;;;9.88;100.00;101245.78;5033740;28;20055;-32
2022/12/18 10:20:18;;;;;;;45.00;24.25;;;;;;;9.93;100.00;101248.75;5051681;28;20036;-32
2022/12/18 10:23:22;;;;;;;57.75;29.65;;;;;;;10.01;100.00;101248.63;5069868;28;20089;-30
2022/12/18 10:26:05;;;;;;;43.00;25.70;;;;;;;9.98;100.00;101246.31;5022739;28;20046;-30
2022/12/18 10:28:35;;;;;;;45.60;26.67;;;;;;;10.16;100.00;101250.44;5068440;28;20411;-28
2022/12/18 10:31:00;;;;;;;55.63;30.50;;;;;;;10.11;100.00;101240.31;5051312;28;20055;-32
2022/12/18 10:33:30;;;;;;;43.88;23.63;;;;;;;10.04;100.00;101218.94;5069328;28;20056;-32
2022/12/18 10:35:55;;;;;;;29.77;14.52;;;;;;;10.15;100.00;101235.44;5069893;28;20029;-29
2022/12/18 10:38:24;;;;;;;43.17;22.00;;;;;;;9.99;100.00;101240.00;5068360;28;20078;-28
2022/12/18 10:40:54;;;;;;;47.90;23.38;;;;;;;9.90;100.00;101243.75;5069431;28;20032;-33
2022/12/18 10:43:30;;;;;;;30.77;19.33;;;;;;;9.94;100.00;101255.72;5051202;28;20039;-31
2022/12/18 10:46:07;;;;;;;31.55;17.38;;;;;;;9.87;100.00;101276.13;5069248;28;20055;-30
2022/12/18 10:48:47;;;;;;;19.30;11.32;;;;;;;9.93;100.00;101262.06;5069630;28;20032;-31
2022/12/18 10:51:33;;;;;;;18.88;11.88;;;;;;;9.85;100.00;101270.16;5050644;28;20090;-33
2022/12/18 10:54:04;;;;;;;56.05;40.30;;;;;;;9.90;100.00;101275.75;5069127;28;20452;-29
2022/12/18 10:56:33;;;;;;;74.50;52.10;;;;;;;9.86;100.00;101275.28;5051057;28;20028;-29
2022/12/18 10:59:04;;;;;;;20.13;14.10;;;;;;;9.86;100.00;101269.94;5069080;28;20488;-28
2022/12/18 11:01:48;;;;;;;38.33;25.52;;;;;;;9.91;100.00;101257.91;5069109;28;20039;-31
2022/12/18 11:04:19;;;;;;;17.17;11.15;;;;;;;9.97;100.00;101266.00;5068934;28;20101;-29
2022/12/18 11:06:57;;;;;;;20.65;13.15;;;;;;;9.92;100.00;101284.38;5068974;28;20025;-28
2022/12/18 11:09:25;;;;;;;21.08;12.98;;;;;;;9.97;100.00;101286.47;5068827;28;20332;-28
2022/12/18 11:11:54;;;;;;;16.05;10.10;;;;;;;9.82;100.00;101275.84;5050670;28;20056;-29
2022/12/18 11:14:43;;;;;;;19.67;12.00;;;;;;;10.06;100.00;101275.53;5068729;28;20024;-28
2022/12/18 11:17:19;;;;;;;19.33;10.65;;;;;;;10.12;100.00;101283.81;5068462;28;20048;-30
2022/12/18 11:19:44;;;;;;;19.58;13.30;;;;;;;10.00;100.00;101281.63;5068914;28;20032;-28
2022/12/18 11:22:22;;;;;;;20.50;12.18;;;;;;;10.05;100.00;101284.56;5068582;28;20032;-29